createdAt,value
2017-01-16T00:07:54.624Z,0
2017-01-16T00:08:41.377Z,0
2017-01-16T00:09:24.566Z,0
2017-01-16T00:10:08.475Z,0
2017-01-16T00:10:52.485Z,0
2017-01-16T00:11:38.395Z,0
2017-01-16T00:12:24.485Z,0
2017-01-16T00:13:17.408Z,0
2017-01-16T00:14:00.669Z,0
2017-01-16T00:14:43.370Z,0
2017-01-16T00:15:24.764Z,0
2017-01-16T00:16:10.376Z,0
2017-01-16T00:16:53.501Z,0
2017-01-16T00:17:52.540Z,0
2017-01-16T00:26:57.930Z,0
2017-01-16T00:27:47.074Z,0
2017-01-16T00:28:30.450Z,0
2017-01-16T00:29:13.369Z,0
2017-01-16T00:33:18.513Z,0
2017-01-16T00:34:06.271Z,0
2017-01-16T00:34:46.769Z,0
2017-01-16T00:35:27.762Z,0
2017-01-16T00:37:52.703Z,0
2017-01-16T00:38:34.150Z,0
2017-01-16T00:44:00.181Z,0
2017-01-16T00:44:40.601Z,0
2017-01-16T00:45:32.448Z,0
2017-01-16T00:46:17.754Z,0
2017-01-16T00:47:02.516Z,0
2017-01-16T00:47:46.441Z,0
2017-01-16T00:48:26.996Z,0
2017-01-16T00:52:44.359Z,0
2017-01-16T00:53:29.331Z,0
2017-01-16T00:55:50.976Z,0
2017-01-16T00:56:36.886Z,0
2017-01-16T00:57:19.899Z,0
2017-01-16T00:58:04.900Z,0
2017-01-16T00:58:46.878Z,0
2017-01-16T00:59:30.987Z,0
2017-01-16T01:01:46.206Z,0
2017-01-16T01:02:29.038Z,0
2017-01-16T01:03:14.122Z,0
2017-01-16T01:03:55.147Z,0
2017-01-16T01:04:55.019Z,0
2017-01-16T01:05:36.221Z,0
2017-01-16T01:07:56.297Z,0
2017-01-16T01:08:36.783Z,0
2017-01-16T01:09:21.431Z,0
2017-01-16T01:10:11.621Z,0
2017-01-16T01:11:01.400Z,0
2017-01-16T01:11:48.398Z,0
2017-01-16T01:12:32.414Z,0
2017-01-16T01:13:16.487Z,0
2017-01-16T01:14:05.391Z,0
2017-01-16T01:14:45.858Z,0
2017-01-16T01:15:26.389Z,0
2017-01-16T01:17:39.533Z,0
2017-01-16T01:18:21.639Z,0
2017-01-16T01:19:02.143Z,0
2017-01-16T01:19:47.169Z,0
2017-01-16T01:20:27.617Z,0
2017-01-16T01:21:08.720Z,0
2017-01-16T01:21:49.171Z,0
2017-01-16T01:22:36.524Z,0
2017-01-16T01:23:16.995Z,0
2017-01-16T01:23:58.120Z,0
2017-01-16T01:24:43.094Z,0
2017-01-16T01:25:24.976Z,0
2017-01-16T01:26:08.267Z,0
2017-01-16T01:26:51.978Z,0
2017-01-16T01:27:35.960Z,0
2017-01-16T01:28:21.981Z,0
2017-01-16T01:29:07.037Z,0
2017-01-16T01:29:55.944Z,0
2017-01-16T01:30:37.012Z,0
2017-01-16T01:31:20.945Z,0
2017-01-16T01:32:04.122Z,0
2017-01-16T01:32:48.971Z,0
2017-01-16T01:33:33.031Z,0
2017-01-16T01:34:15.993Z,0
2017-01-16T01:34:57.118Z,0
2017-01-16T01:40:23.407Z,0
2017-01-16T01:41:08.068Z,0
2017-01-16T01:41:51.998Z,0
2017-01-16T01:46:13.164Z,0
2017-01-16T01:46:56.171Z,0
2017-01-16T01:47:36.675Z,0
2017-01-16T01:48:22.749Z,0
2017-01-16T01:49:11.687Z,0
2017-01-16T01:49:52.140Z,0
2017-01-16T01:50:32.648Z,0
2017-01-16T01:51:14.678Z,0
2017-01-16T01:51:56.042Z,0
2017-01-16T01:52:37.063Z,0
2017-01-16T01:53:22.187Z,0
2017-01-16T01:54:09.176Z,0
2017-01-16T01:56:43.829Z,0
2017-01-16T01:57:32.791Z,0
2017-01-16T01:58:24.971Z,0
2017-01-16T01:59:10.773Z,0
2017-01-16T02:00:01.779Z,0
2017-01-16T02:00:55.870Z,0
2017-01-16T02:01:36.868Z,0
2017-01-16T02:02:17.363Z,0
2017-01-16T02:02:57.811Z,0
2017-01-16T02:03:41.826Z,0
2017-01-16T02:04:24.188Z,0
2017-01-16T02:06:58.603Z,0
2017-01-16T02:07:48.599Z,0
2017-01-16T02:10:28.094Z,0
2017-01-16T02:11:09.218Z,0
2017-01-16T02:13:42.026Z,0
2017-01-16T02:14:24.216Z,0
2017-01-16T02:16:39.808Z,0
2017-01-16T02:17:21.164Z,0
2017-01-16T02:18:01.748Z,0
2017-01-16T02:18:56.814Z,0
2017-01-16T02:19:42.765Z,0
2017-01-16T02:20:38.068Z,0
2017-01-16T02:21:20.763Z,0
2017-01-16T02:22:02.879Z,0
2017-01-16T02:22:48.783Z,0
2017-01-16T02:23:32.884Z,0
2017-01-16T02:24:14.929Z,0
2017-01-16T02:24:56.925Z,0
2017-01-16T02:25:38.788Z,0
2017-01-16T02:26:21.149Z,0
2017-01-16T02:27:02.458Z,0
2017-01-16T02:27:43.417Z,0
2017-01-16T02:28:30.276Z,0
2017-01-16T02:30:48.629Z,0
2017-01-16T02:31:34.420Z,0
2017-01-16T02:32:15.610Z,0
2017-01-16T02:32:56.856Z,0
2017-01-16T02:33:51.848Z,0
2017-01-16T02:34:46.902Z,0
2017-01-16T02:35:42.878Z,0
2017-01-16T02:36:24.847Z,0
2017-01-16T02:38:40.941Z,0
2017-01-16T02:39:27.089Z,0
2017-01-16T02:40:11.100Z,0
2017-01-16T02:40:53.921Z,0
2017-01-16T02:41:36.930Z,0
2017-01-16T02:42:19.930Z,0
2017-01-16T02:45:07.687Z,0
2017-01-16T02:45:48.626Z,0
2017-01-16T02:46:29.738Z,0
2017-01-16T02:49:04.789Z,0
2017-01-16T02:49:45.781Z,0
2017-01-16T02:50:29.228Z,0
2017-01-16T02:51:14.118Z,0
2017-01-16T02:52:00.983Z,0
2017-01-16T02:52:56.336Z,0
2017-01-16T02:55:11.429Z,0
2017-01-16T02:57:27.232Z,0
2017-01-16T02:59:53.806Z,0
2017-01-16T03:00:35.895Z,0
2017-01-16T03:01:21.129Z,0
2017-01-16T03:02:05.905Z,0
2017-01-16T03:02:47.821Z,0
2017-01-16T03:03:32.882Z,0
2017-01-16T03:04:16.823Z,0
2017-01-16T03:05:00.897Z,0
2017-01-16T03:05:41.983Z,0
2017-01-16T03:06:27.808Z,0
2017-01-16T03:07:14.830Z,0
2017-01-16T03:07:58.817Z,0
2017-01-16T03:08:40.188Z,0
2017-01-16T03:09:21.567Z,0
2017-01-16T03:10:02.965Z,0
2017-01-16T03:10:43.450Z,0
2017-01-16T03:11:30.338Z,0
2017-01-16T03:13:48.890Z,0
2017-01-16T03:14:42.896Z,0
2017-01-16T03:15:26.164Z,0
2017-01-16T03:31:43.669Z,0
2017-01-16T03:38:53.776Z,0
2017-01-16T03:39:35.963Z,0
2017-01-16T03:40:17.386Z,0
2017-01-16T03:44:25.605Z,0
2017-01-16T03:46:58.691Z,0
2017-01-16T03:47:39.177Z,0
2017-01-16T03:48:21.199Z,0
2017-01-16T03:49:03.597Z,0
2017-01-16T03:49:45.559Z,0
2017-01-16T03:50:28.985Z,0
2017-01-16T03:51:14.918Z,0
2017-01-16T03:57:02.970Z,0
2017-01-16T03:57:49.913Z,0
2017-01-16T03:58:58.940Z,0
2017-01-16T04:03:12.083Z,0
2017-01-16T04:08:59.287Z,0
2017-01-16T04:09:39.654Z,0
2017-01-16T04:10:29.640Z,0
2017-01-16T04:15:49.325Z,0
2017-01-16T04:16:30.653Z,0
2017-01-16T04:17:25.851Z,0
2017-01-16T04:18:08.731Z,0
2017-01-16T04:20:43.946Z,0
2017-01-16T04:23:32.070Z,0
2017-01-16T04:27:24.772Z,0
2017-01-16T04:28:16.800Z,0
2017-01-16T04:29:04.801Z,0
2017-01-16T04:29:47.796Z,0
2017-01-16T04:30:41.792Z,0
2017-01-16T04:31:24.781Z,0
2017-01-16T04:32:15.796Z,0
2017-01-16T04:32:57.862Z,0
2017-01-16T04:33:40.851Z,0
2017-01-16T04:34:22.064Z,0
2017-01-16T04:35:02.535Z,0
2017-01-16T04:35:44.433Z,0
2017-01-16T04:36:24.909Z,0
2017-01-16T04:38:49.720Z,0
2017-01-16T04:39:36.589Z,0
2017-01-16T04:40:23.564Z,0
2017-01-16T04:41:05.487Z,0
2017-01-16T04:41:52.491Z,0
2017-01-16T04:42:36.579Z,0
2017-01-16T04:43:24.784Z,0
2017-01-16T04:45:41.813Z,0
2017-01-16T04:46:24.027Z,0
2017-01-16T04:47:07.137Z,0
2017-01-16T04:47:47.643Z,0
2017-01-16T04:48:30.368Z,0
2017-01-16T04:49:12.726Z,0
2017-01-16T04:49:53.227Z,0
2017-01-16T04:50:36.335Z,0
2017-01-16T04:51:22.448Z,0
2017-01-16T04:52:05.530Z,0
2017-01-16T04:52:48.423Z,0
2017-01-16T04:53:28.879Z,0
2017-01-16T04:54:17.861Z,0
2017-01-16T04:55:04.915Z,0
2017-01-16T04:55:45.350Z,0
2017-01-16T04:56:26.648Z,0
2017-01-16T04:57:08.627Z,0
2017-01-16T04:57:49.926Z,0
2017-01-16T04:58:31.149Z,0
2017-01-16T04:59:11.595Z,0
2017-01-16T04:59:52.056Z,0
2017-01-16T05:00:32.581Z,0
2017-01-16T05:01:13.842Z,0
2017-01-16T05:01:54.858Z,0
2017-01-16T05:02:36.114Z,0
2017-01-16T05:03:27.343Z,0
2017-01-16T05:04:12.436Z,0
2017-01-16T05:04:52.902Z,0
2017-01-16T05:05:33.929Z,0
2017-01-16T05:06:16.874Z,0
2017-01-16T05:06:57.321Z,0
2017-01-16T05:07:39.530Z,0
2017-01-16T05:08:19.999Z,0
2017-01-16T05:09:01.544Z,0
2017-01-16T05:09:55.420Z,0
2017-01-16T05:10:38.504Z,0
2017-01-16T05:11:27.347Z,0
2017-01-16T05:12:17.450Z,0
2017-01-16T05:12:57.925Z,0
2017-01-16T05:13:39.369Z,0
2017-01-16T05:14:20.352Z,0
2017-01-16T05:15:05.463Z,0
2017-01-16T05:15:48.499Z,0
2017-01-16T05:16:29.004Z,0
2017-01-16T05:17:09.476Z,0
2017-01-16T05:17:49.974Z,0
2017-01-16T05:18:30.450Z,0
2017-01-16T05:19:10.912Z,0
2017-01-16T05:19:51.384Z,0
2017-01-16T05:20:31.869Z,0
2017-01-16T05:21:12.380Z,0
2017-01-16T05:21:52.832Z,0
2017-01-16T05:22:33.324Z,0
2017-01-16T05:23:13.807Z,0
2017-01-16T05:23:54.293Z,0
2017-01-16T05:24:35.072Z,0
2017-01-16T05:25:15.542Z,0
2017-01-16T05:25:56.006Z,0
2017-01-16T05:26:36.532Z,0
2017-01-16T05:27:17.023Z,0
2017-01-16T05:27:57.507Z,0
2017-01-16T05:28:37.991Z,0
2017-01-16T05:29:18.476Z,0
2017-01-16T05:29:58.953Z,0
2017-01-16T05:30:39.723Z,0
2017-01-16T05:31:20.217Z,0
2017-01-16T05:32:00.943Z,0
2017-01-16T05:32:41.697Z,0
2017-01-16T05:33:22.402Z,0
2017-01-16T05:34:03.181Z,0
2017-01-16T05:34:43.685Z,0
2017-01-16T05:35:24.193Z,0
2017-01-16T05:36:04.670Z,0
2017-01-16T05:36:45.185Z,0
2017-01-16T05:37:25.693Z,0
2017-01-16T05:38:06.249Z,0
2017-01-16T05:38:46.739Z,0
2017-01-16T05:39:27.248Z,0
2017-01-16T05:40:07.716Z,0
2017-01-16T05:40:48.241Z,0
2017-01-16T05:41:28.693Z,0
2017-01-16T05:42:09.219Z,0
2017-01-16T05:42:49.697Z,0
2017-01-16T05:43:30.200Z,0
2017-01-16T05:44:10.683Z,0
2017-01-16T05:44:51.171Z,0
2017-01-16T05:45:31.625Z,0
2017-01-16T05:46:12.477Z,0
2017-01-16T05:46:53.246Z,0
2017-01-16T05:47:34.051Z,0
2017-01-16T05:48:14.524Z,0
2017-01-16T05:48:55.021Z,0
2017-01-16T05:49:35.520Z,0
2017-01-16T05:50:15.990Z,0
2017-01-16T05:50:57.361Z,0
2017-01-16T05:51:37.888Z,0
2017-01-16T05:52:18.396Z,0
2017-01-16T05:52:58.878Z,0
2017-01-16T05:53:39.509Z,0
2017-01-16T05:54:19.957Z,0
2017-01-16T05:55:00.622Z,0
2017-01-16T05:55:41.217Z,0
2017-01-16T05:56:21.688Z,0
2017-01-16T05:57:02.220Z,0
2017-01-16T05:57:42.719Z,0
2017-01-16T05:58:23.215Z,0
2017-01-16T05:59:03.732Z,0
2017-01-16T05:59:44.203Z,0
2017-01-16T06:00:24.685Z,0
2017-01-16T06:01:05.185Z,0
2017-01-16T06:01:45.636Z,0
2017-01-16T06:02:26.149Z,0
2017-01-16T06:03:06.645Z,0
2017-01-16T06:03:47.068Z,0
2017-01-16T06:04:27.548Z,0
2017-01-16T06:05:08.066Z,0
2017-01-16T06:05:48.518Z,0
2017-01-16T06:06:28.992Z,0
2017-01-16T06:07:09.485Z,0
2017-01-16T06:07:49.976Z,0
2017-01-16T06:08:30.450Z,0
2017-01-16T06:09:10.939Z,0
2017-01-16T06:09:51.411Z,0
2017-01-16T06:10:31.940Z,0
2017-01-16T06:11:12.419Z,0
2017-01-16T06:11:52.937Z,0
2017-01-16T06:12:33.426Z,0
2017-01-16T06:13:13.933Z,0
2017-01-16T06:13:54.407Z,0
2017-01-16T06:14:35.001Z,0
2017-01-16T06:15:15.528Z,0
2017-01-16T06:15:55.983Z,0
2017-01-16T06:16:36.490Z,0
2017-01-16T06:17:16.974Z,0
2017-01-16T06:17:57.424Z,0
2017-01-16T06:18:37.910Z,0
2017-01-16T06:19:18.430Z,0
2017-01-16T06:19:58.940Z,0
2017-01-16T06:20:39.412Z,0
2017-01-16T06:21:19.925Z,0
2017-01-16T06:22:00.398Z,0
2017-01-16T06:22:40.931Z,0
2017-01-16T06:23:21.421Z,0
2017-01-16T06:24:01.956Z,0
2017-01-16T06:24:42.433Z,0
2017-01-16T06:25:22.888Z,0
2017-01-16T06:26:03.372Z,0
2017-01-16T06:26:43.864Z,0
2017-01-16T06:27:24.321Z,0
2017-01-16T06:28:04.855Z,0
2017-01-16T06:28:45.343Z,0
2017-01-16T06:29:25.818Z,0
2017-01-16T06:30:06.331Z,0
2017-01-16T06:30:46.810Z,0
2017-01-16T06:31:27.277Z,0
2017-01-16T06:32:07.739Z,0
2017-01-16T06:32:48.229Z,0
2017-01-16T06:33:28.716Z,0
2017-01-16T06:34:09.158Z,0
2017-01-16T06:34:49.845Z,0
2017-01-16T06:35:30.377Z,0
2017-01-16T06:36:10.859Z,0
2017-01-16T06:36:51.376Z,0
2017-01-16T06:37:31.819Z,0
2017-01-16T06:38:12.329Z,0
2017-01-16T06:38:52.840Z,0
2017-01-16T06:39:33.387Z,0
2017-01-16T06:40:14.719Z,0
2017-01-16T06:40:55.225Z,0
2017-01-16T06:41:35.750Z,0
2017-01-16T06:42:16.217Z,0
2017-01-16T06:42:56.732Z,0
2017-01-16T06:43:37.218Z,0
2017-01-16T06:44:17.703Z,0
2017-01-16T06:44:58.999Z,0
2017-01-16T06:45:39.480Z,0
2017-01-16T06:46:19.990Z,0
2017-01-16T06:47:00.476Z,0
2017-01-16T06:47:41.050Z,0
2017-01-16T06:48:21.544Z,0
2017-01-16T06:49:02.089Z,0
2017-01-16T06:49:42.647Z,0
2017-01-16T06:50:23.145Z,0
2017-01-16T06:51:03.649Z,0
2017-01-16T06:51:44.159Z,0
2017-01-16T06:52:24.710Z,0
2017-01-16T06:53:05.191Z,0
2017-01-16T06:53:46.510Z,0
2017-01-16T06:54:26.922Z,0
2017-01-16T06:55:07.406Z,0
2017-01-16T06:55:48.070Z,0
2017-01-16T06:56:33.715Z,0
2017-01-16T06:57:19.243Z,0
2017-01-16T06:58:01.850Z,0
2017-01-16T06:58:42.313Z,0
2017-01-16T06:59:22.805Z,0
2017-01-16T07:00:03.335Z,0
2017-01-16T07:00:43.827Z,0
2017-01-16T07:01:24.326Z,0
2017-01-16T07:02:04.869Z,0
2017-01-16T07:02:45.347Z,0
2017-01-16T07:03:25.880Z,0
2017-01-16T07:04:06.387Z,0
2017-01-16T07:04:46.867Z,0
2017-01-16T07:05:27.378Z,0
2017-01-16T07:06:07.881Z,0
2017-01-16T07:06:48.341Z,0
2017-01-16T07:07:28.839Z,0
2017-01-16T07:08:09.295Z,0
2017-01-16T07:08:49.853Z,0
2017-01-16T07:09:30.384Z,0
2017-01-16T07:10:10.838Z,0
2017-01-16T07:10:51.358Z,0
2017-01-16T07:11:32.832Z,0
2017-01-16T07:12:13.307Z,0
2017-01-16T07:12:53.776Z,0
2017-01-16T07:13:34.372Z,0
2017-01-16T07:14:15.516Z,0
2017-01-16T07:14:56.021Z,0
2017-01-16T07:15:36.503Z,0
2017-01-16T07:16:17.100Z,0
2017-01-16T07:16:57.612Z,0
2017-01-16T07:17:38.087Z,0
2017-01-16T07:18:18.549Z,0
2017-01-16T07:18:59.098Z,0
2017-01-16T07:19:40.534Z,0
2017-01-16T07:20:21.199Z,0
2017-01-16T07:21:01.655Z,0
2017-01-16T07:21:42.322Z,0
2017-01-16T07:22:23.009Z,0
2017-01-16T07:23:03.523Z,0
2017-01-16T07:23:44.218Z,0
2017-01-16T07:24:24.777Z,0
2017-01-16T07:25:05.254Z,0
2017-01-16T07:25:45.761Z,0
2017-01-16T07:26:26.427Z,5
2017-01-16T07:27:07.035Z,5
2017-01-16T07:27:47.615Z,5
2017-01-16T07:28:28.215Z,5
2017-01-16T07:29:08.765Z,5
2017-01-16T07:29:49.272Z,5
2017-01-16T07:30:29.644Z,5
2017-01-16T07:31:10.233Z,5
2017-01-16T07:31:50.764Z,5
2017-01-16T07:32:31.262Z,5
2017-01-16T07:33:11.763Z,5
2017-01-16T07:33:52.374Z,5
2017-01-16T07:34:32.882Z,5
2017-01-16T07:35:13.430Z,5
2017-01-16T07:35:53.931Z,10
2017-01-16T07:36:34.398Z,10
2017-01-16T07:37:14.934Z,10
2017-01-16T07:37:55.463Z,10
2017-01-16T07:38:36.022Z,10
2017-01-16T07:39:16.513Z,10
2017-01-16T07:39:57.017Z,10
2017-01-16T07:40:37.638Z,10
2017-01-16T07:41:18.152Z,10
2017-01-16T07:41:58.677Z,10
2017-01-16T07:42:39.231Z,15
2017-01-16T07:43:19.776Z,15
2017-01-16T07:44:00.257Z,15
2017-01-16T07:44:40.741Z,15
2017-01-16T07:45:21.874Z,15
2017-01-16T07:46:02.301Z,15
2017-01-16T07:46:42.792Z,15
2017-01-16T07:47:23.406Z,15
2017-01-16T07:48:04.181Z,20
2017-01-16T07:48:44.613Z,20
2017-01-16T07:49:26.227Z,20
2017-01-16T07:50:07.339Z,20
2017-01-16T07:50:47.797Z,20
2017-01-16T07:51:28.276Z,20
2017-01-16T07:52:08.760Z,25
2017-01-16T07:52:49.369Z,25
2017-01-16T07:53:29.850Z,25
2017-01-16T07:54:10.430Z,25
2017-01-16T07:54:50.912Z,25
2017-01-16T07:55:32.210Z,25
2017-01-16T07:56:12.668Z,30
2017-01-16T07:56:53.253Z,30
2017-01-16T07:57:33.738Z,30
2017-01-16T07:58:14.239Z,30
2017-01-16T07:58:55.726Z,30
2017-01-16T07:59:36.341Z,30
2017-01-16T08:00:16.836Z,35
2017-01-16T08:00:58.127Z,35
2017-01-16T08:01:38.627Z,35
2017-01-16T08:02:19.166Z,35
2017-01-16T08:02:59.641Z,35
2017-01-16T08:03:40.134Z,35
2017-01-16T08:04:20.694Z,40
2017-01-16T08:05:01.205Z,40
2017-01-16T08:05:41.813Z,40
2017-01-16T08:06:22.934Z,40
2017-01-16T08:07:03.444Z,40
2017-01-16T08:07:44.049Z,40
2017-01-16T08:08:24.672Z,45
2017-01-16T08:09:05.143Z,45
2017-01-16T08:09:45.655Z,45
2017-01-16T08:10:26.164Z,45
2017-01-16T08:11:08.134Z,45
2017-01-16T08:11:48.764Z,45
2017-01-16T08:12:29.288Z,45
2017-01-16T08:13:09.710Z,50
2017-01-16T08:13:50.306Z,50
2017-01-16T08:14:30.812Z,50
2017-01-16T08:15:11.331Z,50
2017-01-16T08:15:51.840Z,50
2017-01-16T08:16:32.409Z,50
2017-01-16T08:17:12.933Z,50
2017-01-16T08:17:53.430Z,55
2017-01-16T08:18:33.922Z,55
2017-01-16T08:19:14.418Z,55
2017-01-16T08:19:54.973Z,55
2017-01-16T08:20:35.582Z,55
2017-01-16T08:21:16.127Z,55
2017-01-16T08:21:56.622Z,55
2017-01-16T08:22:37.120Z,60
2017-01-16T08:23:17.605Z,60
2017-01-16T08:23:58.138Z,60
2017-01-16T08:24:38.695Z,60
2017-01-16T08:25:19.337Z,60
2017-01-16T08:25:59.717Z,60
2017-01-16T08:26:40.287Z,60
2017-01-16T08:27:20.999Z,60
2017-01-16T08:28:01.461Z,65
2017-01-16T08:30:43.591Z,65
2017-01-16T08:31:24.218Z,65
2017-01-16T08:32:04.779Z,65
2017-01-16T08:32:46.029Z,65
2017-01-16T08:33:26.605Z,70
2017-01-16T08:34:07.075Z,70
2017-01-16T08:34:47.609Z,70
2017-01-16T08:35:28.212Z,70
2017-01-16T08:36:08.682Z,70
2017-01-16T08:36:49.203Z,70
2017-01-16T08:37:29.907Z,70
2017-01-16T08:38:10.421Z,70
2017-01-16T08:38:51.068Z,70
2017-01-16T08:39:31.615Z,75
2017-01-16T08:40:22.038Z,75
2017-01-16T08:41:12.836Z,75
2017-01-16T08:41:52.194Z,75
2017-01-16T08:42:32.740Z,75
2017-01-16T08:43:13.203Z,75
2017-01-16T08:43:53.691Z,75
2017-01-16T08:44:34.218Z,75
2017-01-16T08:45:15.146Z,75
2017-01-16T08:45:55.743Z,80
2017-01-16T08:46:36.273Z,80
2017-01-16T08:47:16.744Z,80
2017-01-16T08:47:57.243Z,80
2017-01-16T08:48:37.857Z,80
2017-01-16T08:49:18.308Z,80
2017-01-16T08:49:58.799Z,80
2017-01-16T08:50:39.291Z,80
2017-01-16T08:51:19.856Z,80
2017-01-16T08:52:00.345Z,80
2017-01-16T08:52:40.835Z,85
2017-01-16T08:53:21.448Z,85
2017-01-16T08:54:01.938Z,85
2017-01-16T08:54:42.459Z,85
2017-01-16T08:55:23.079Z,85
2017-01-16T08:56:03.543Z,85
2017-01-16T08:56:44.063Z,85
2017-01-16T08:57:24.565Z,85
2017-01-16T08:58:05.355Z,85
2017-01-16T08:58:45.764Z,85
2017-01-16T08:59:26.260Z,90
2017-01-16T09:00:06.758Z,90
2017-01-16T09:00:47.268Z,90
2017-01-16T09:01:27.765Z,90
2017-01-16T09:02:08.254Z,90
2017-01-16T09:02:48.783Z,90
2017-01-16T09:03:29.267Z,90
2017-01-16T09:04:09.770Z,90
2017-01-16T09:04:50.241Z,90
2017-01-16T09:05:30.750Z,90
2017-01-16T09:06:11.231Z,90
2017-01-16T09:06:51.760Z,90
2017-01-16T09:07:32.313Z,95
2017-01-16T09:09:51.183Z,95
2017-01-16T09:10:34.089Z,95
2017-01-16T09:11:14.591Z,95
2017-01-16T09:11:56.995Z,95
2017-01-16T09:14:16.802Z,95
2017-01-16T09:14:57.344Z,95
2017-01-16T09:15:39.292Z,100
2017-01-16T09:16:23.204Z,100
2017-01-16T09:17:06.850Z,100
2017-01-16T09:17:48.301Z,100
2017-01-16T09:18:29.788Z,100
2017-01-16T09:19:10.866Z,100
2017-01-16T09:19:52.405Z,100
2017-01-16T09:20:32.894Z,100
2017-01-16T09:21:14.374Z,100
2017-01-16T09:21:54.836Z,100
2017-01-16T09:22:35.314Z,100
2017-01-16T09:23:15.859Z,100
2017-01-16T09:23:56.347Z,100
2017-01-16T09:24:36.917Z,100
2017-01-16T09:25:17.393Z,100
2017-01-16T09:25:57.879Z,100
2017-01-16T09:26:38.362Z,105
2017-01-16T09:27:18.872Z,105
2017-01-16T09:27:59.323Z,105
2017-01-16T09:28:39.860Z,105
2017-01-16T09:29:21.128Z,105
2017-01-16T09:30:05.350Z,105
2017-01-16T09:30:46.352Z,105
2017-01-16T09:31:26.862Z,105
2017-01-16T09:32:07.319Z,105
2017-01-16T09:32:47.983Z,105
2017-01-16T09:33:31.312Z,105
2017-01-16T09:34:12.122Z,105
2017-01-16T09:34:57.115Z,105
2017-01-16T09:35:38.949Z,105
2017-01-16T09:36:19.734Z,105
2017-01-16T09:37:00.519Z,105
2017-01-16T09:37:42.168Z,105
2017-01-16T09:38:24.198Z,105
2017-01-16T09:39:06.610Z,105
2017-01-16T09:39:54.328Z,105
2017-01-16T09:40:41.449Z,105
2017-01-16T09:41:23.888Z,105
2017-01-16T09:42:06.293Z,105
2017-01-16T09:42:48.109Z,105
2017-01-16T09:43:35.801Z,105
2017-01-16T09:44:21.161Z,105
2017-01-16T09:45:02.773Z,105
2017-01-16T09:45:45.194Z,105
2017-01-16T09:46:26.025Z,105
2017-01-16T09:47:07.217Z,105
2017-01-16T09:47:47.841Z,105
2017-01-16T09:48:29.324Z,105
2017-01-16T09:49:10.052Z,105
2017-01-16T09:49:50.790Z,105
2017-01-16T09:50:31.504Z,110
2017-01-16T09:51:12.290Z,110
2017-01-16T09:51:53.346Z,110
2017-01-16T09:52:34.055Z,110
2017-01-16T09:53:15.012Z,110
2017-01-16T09:53:55.770Z,110
2017-01-16T09:54:36.529Z,110
2017-01-16T09:55:17.297Z,110
2017-01-16T09:55:58.021Z,110
2017-01-16T09:56:38.735Z,110
2017-01-16T09:57:19.425Z,110
2017-01-16T09:58:00.728Z,110
2017-01-16T09:58:41.446Z,110
2017-01-16T09:59:22.176Z,110
2017-01-16T10:00:02.843Z,110
2017-01-16T10:00:43.550Z,110
2017-01-16T10:01:24.866Z,115
2017-01-16T10:02:05.702Z,115
2017-01-16T10:02:49.279Z,115
2017-01-16T10:03:32.431Z,115
2017-01-16T10:04:13.316Z,115
2017-01-16T10:04:54.364Z,115
2017-01-16T10:05:34.958Z,115
2017-01-16T10:06:15.937Z,115
2017-01-16T10:06:56.848Z,115
2017-01-16T10:07:37.911Z,115
2017-01-16T10:08:19.611Z,115
2017-01-16T10:09:06.154Z,115
2017-01-16T10:09:48.066Z,115
2017-01-16T10:10:30.784Z,115
2017-01-16T10:11:12.490Z,115
2017-01-16T10:11:53.278Z,115
2017-01-16T10:12:34.916Z,115
2017-01-16T10:13:15.672Z,115
2017-01-16T10:13:57.504Z,115
2017-01-16T10:14:41.956Z,115
2017-01-16T10:15:26.018Z,115
2017-01-16T10:16:06.808Z,115
2017-01-16T10:16:49.316Z,115
2017-01-16T10:17:30.949Z,115
2017-01-16T10:18:14.561Z,115
2017-01-16T10:18:55.313Z,120
2017-01-16T10:19:36.743Z,120
2017-01-16T10:20:17.481Z,120
2017-01-16T10:20:58.824Z,120
2017-01-16T10:21:39.561Z,120
2017-01-16T10:22:20.689Z,120
2017-01-16T10:23:01.457Z,120
2017-01-16T10:23:43.143Z,120
2017-01-16T10:24:24.714Z,120
2017-01-16T10:25:08.207Z,120
2017-01-16T10:28:05.235Z,120
2017-01-16T10:28:45.940Z,120
2017-01-16T10:29:26.667Z,120
2017-01-16T10:30:07.397Z,120
2017-01-16T10:30:48.080Z,120
2017-01-16T10:31:28.812Z,120
2017-01-16T10:32:10.259Z,120
2017-01-16T10:32:51.094Z,120
2017-01-16T10:33:31.832Z,120
2017-01-16T10:34:12.558Z,120
2017-01-16T10:34:53.278Z,120
2017-01-16T10:35:34.058Z,120
2017-01-16T10:36:14.720Z,120
2017-01-16T10:36:55.575Z,120
2017-01-16T10:37:36.299Z,120
2017-01-16T10:38:17.399Z,120
2017-01-16T10:38:58.151Z,120
2017-01-16T10:39:38.939Z,120
2017-01-16T10:40:20.161Z,120
2017-01-16T10:41:00.950Z,115
2017-01-16T10:41:42.736Z,115
2017-01-16T10:42:23.426Z,115
2017-01-16T10:43:04.152Z,115
2017-01-16T10:43:48.423Z,115
2017-01-16T10:44:29.125Z,115
2017-01-16T10:45:09.969Z,115
2017-01-16T10:45:50.674Z,115
2017-01-16T10:46:31.522Z,115
2017-01-16T10:47:12.247Z,120
2017-01-16T10:47:52.964Z,120
2017-01-16T10:48:33.726Z,120
2017-01-16T10:49:14.494Z,120
2017-01-16T10:49:55.195Z,120
2017-01-16T10:50:35.921Z,120
2017-01-16T10:51:16.625Z,120
2017-01-16T10:51:57.569Z,120
2017-01-16T10:52:38.274Z,125
2017-01-16T10:53:19.000Z,125
2017-01-16T10:53:59.704Z,125
2017-01-16T10:54:40.587Z,125
2017-01-16T10:55:21.226Z,125
2017-01-16T10:56:01.931Z,120
2017-01-16T10:56:42.672Z,125
2017-01-16T10:57:23.409Z,125
2017-01-16T10:58:04.276Z,125
2017-01-16T10:58:44.957Z,125
2017-01-16T10:59:25.657Z,125
2017-01-16T11:00:06.219Z,125
2017-01-16T11:00:46.885Z,125
2017-01-16T11:01:27.609Z,130
2017-01-16T11:02:08.338Z,130
2017-01-16T11:02:49.024Z,130
2017-01-16T11:03:29.638Z,130
2017-01-16T11:04:10.672Z,130
2017-01-16T11:04:51.404Z,130
2017-01-16T11:05:32.138Z,130
2017-01-16T11:06:13.934Z,130
2017-01-16T11:06:54.562Z,130
2017-01-16T11:07:35.233Z,135
2017-01-16T11:08:16.012Z,140
2017-01-16T11:08:56.815Z,135
2017-01-16T11:09:37.630Z,135
2017-01-16T11:10:18.469Z,135
2017-01-16T11:10:59.216Z,135
2017-01-16T11:11:39.969Z,140
2017-01-16T11:12:20.804Z,140
2017-01-16T11:13:01.574Z,140
2017-01-16T11:13:42.280Z,140
2017-01-16T11:14:26.316Z,145
2017-01-16T11:15:11.419Z,140
2017-01-16T11:15:52.080Z,145
2017-01-16T11:16:32.980Z,145
2017-01-16T11:17:13.707Z,145
2017-01-16T11:17:54.466Z,145
2017-01-16T11:18:35.141Z,145
2017-01-16T11:19:15.832Z,145
2017-01-16T11:19:56.428Z,150
2017-01-16T11:20:37.151Z,150
2017-01-16T11:21:18.510Z,150
2017-01-16T11:21:59.379Z,150
2017-01-16T11:22:40.205Z,150
2017-01-16T11:23:20.925Z,150
2017-01-16T11:24:01.627Z,150
2017-01-16T11:24:42.363Z,155
2017-01-16T11:25:23.003Z,155
2017-01-16T11:26:05.913Z,155
2017-01-16T11:26:47.437Z,150
2017-01-16T11:27:28.146Z,150
2017-01-16T11:28:08.872Z,150
2017-01-16T11:28:49.329Z,155
2017-01-16T11:29:29.796Z,155
2017-01-16T11:30:10.311Z,155
2017-01-16T11:30:51.166Z,155
2017-01-16T11:31:31.707Z,155
2017-01-16T11:32:12.355Z,160
2017-01-16T11:32:53.114Z,160
2017-01-16T11:33:33.803Z,160
2017-01-16T11:34:14.488Z,160
2017-01-16T11:34:55.249Z,160
2017-01-16T11:35:35.938Z,165
2017-01-16T11:36:16.665Z,165
2017-01-16T11:36:57.413Z,165
2017-01-16T11:37:38.041Z,165
2017-01-16T11:38:18.673Z,165
2017-01-16T11:38:59.424Z,165
2017-01-16T11:39:40.142Z,165
2017-01-16T11:40:20.937Z,165
2017-01-16T11:41:01.785Z,170
2017-01-16T11:41:42.426Z,170
2017-01-16T11:42:23.260Z,170
2017-01-16T11:43:08.072Z,170
2017-01-16T11:43:49.389Z,170
2017-01-16T11:44:30.274Z,170
2017-01-16T11:45:11.192Z,170
2017-01-16T11:45:51.936Z,170
2017-01-16T11:46:32.658Z,170
2017-01-16T11:47:13.436Z,170
2017-01-16T11:47:54.217Z,170
2017-01-16T11:48:34.883Z,170
2017-01-16T11:49:15.515Z,170
2017-01-16T11:49:56.175Z,170
2017-01-16T11:50:36.886Z,175
2017-01-16T11:51:17.594Z,175
2017-01-16T11:51:58.241Z,175
2017-01-16T11:52:38.977Z,175
2017-01-16T11:53:19.657Z,175
2017-01-16T11:54:01.144Z,175
2017-01-16T11:54:42.019Z,175
2017-01-16T11:55:22.763Z,175
2017-01-16T11:56:04.151Z,175
2017-01-16T11:56:44.820Z,175
2017-01-16T11:57:25.512Z,175
2017-01-16T11:58:06.202Z,175
2017-01-16T11:58:46.927Z,175
2017-01-16T11:59:27.656Z,175
2017-01-16T12:00:08.416Z,170
2017-01-16T12:00:49.655Z,170
2017-01-16T12:01:30.428Z,170
2017-01-16T12:02:11.163Z,170
2017-01-16T12:02:51.906Z,170
2017-01-16T12:09:53.207Z,175
2017-01-16T12:10:38.813Z,175
2017-01-16T12:11:26.881Z,175
2017-01-16T12:12:07.960Z,175
2017-01-16T12:12:48.630Z,175
2017-01-16T12:13:29.555Z,175
2017-01-16T12:14:10.282Z,175
2017-01-16T12:14:51.009Z,175
2017-01-16T12:15:31.726Z,175
2017-01-16T12:16:12.389Z,175
2017-01-16T12:16:53.063Z,175
2017-01-16T12:17:33.886Z,175
2017-01-16T12:18:14.683Z,175
2017-01-16T12:18:55.346Z,175
2017-01-16T12:19:45.927Z,175